EJU14VX LIRN-LGAV
Flight info
| Callsign | EJU14VX |
|---|---|
| Flight time | 1h 24m |
| Altitude | 37000 |
| Route | GALTI DCT LUNAR DCT NOSTO UN7 NEMES |
| Aircraft | A320/M-SDE3FGHIRWY/LB1 |
Departure
| Time | 2026-05-06 12:33 |
|---|---|
| Airport | Naples International Airport (LIRN) |
Arrival
| Time | 2026-05-06 13:57 |
|---|---|
| Airport | Athens Eleftherios Venizelos International Airport (LGAV) |
| Time | Latitude | Longitude | Altitude | Speed | Heading |
|---|---|---|---|---|---|
| 2026-05-06 12:03 | 40.87874 | 14.28342 | 290 ft | 0 kts | 187° |
| 2026-05-06 12:22 | 40.87875 | 14.28342 | 290 ft | 2 kts | 187° |
| 2026-05-06 12:22 | 40.87895 | 14.28346 | 294 ft | 3 kts | 187° |
| 2026-05-06 12:23 | 40.87915 | 14.28348 | 293 ft | 3 kts | 175° |
| 2026-05-06 12:23 | 40.87934 | 14.28343 | 295 ft | 3 kts | 146° |
| 2026-05-06 12:23 | 40.87946 | 14.28326 | 292 ft | 3 kts | 102° |
| 2026-05-06 12:23 | 40.87947 | 14.28320 | 292 ft | 0 kts | 97° |
| 2026-05-06 12:27 | 40.87943 | 14.28361 | 289 ft | 11 kts | 97° |
| 2026-05-06 12:27 | 40.87946 | 14.28464 | 291 ft | 11 kts | 61° |
| 2026-05-06 12:27 | 40.88005 | 14.28537 | 285 ft | 12 kts | 47° |
| 2026-05-06 12:28 | 40.88058 | 14.28629 | 283 ft | 14 kts | 53° |
| 2026-05-06 12:28 | 40.88117 | 14.28730 | 280 ft | 14 kts | 53° |
| 2026-05-06 12:28 | 40.88177 | 14.28834 | 278 ft | 14 kts | 53° |
| 2026-05-06 12:28 | 40.88239 | 14.28941 | 275 ft | 15 kts | 53° |
| 2026-05-06 12:29 | 40.88303 | 14.29051 | 272 ft | 15 kts | 52° |
| 2026-05-06 12:29 | 40.88368 | 14.29164 | 270 ft | 16 kts | 52° |
| 2026-05-06 12:29 | 40.88434 | 14.29280 | 267 ft | 16 kts | 53° |
| 2026-05-06 12:29 | 40.88504 | 14.29400 | 263 ft | 17 kts | 52° |
| 2026-05-06 12:30 | 40.88576 | 14.29524 | 260 ft | 17 kts | 52° |
| 2026-05-06 12:30 | 40.88649 | 14.29652 | 256 ft | 18 kts | 53° |
| 2026-05-06 12:30 | 40.88727 | 14.29785 | 252 ft | 19 kts | 53° |
| 2026-05-06 12:30 | 40.88810 | 14.29930 | 247 ft | 21 kts | 52° |
| 2026-05-06 12:31 | 40.88902 | 14.30089 | 242 ft | 23 kts | 53° |
| 2026-05-06 12:31 | 40.89004 | 14.30265 | 238 ft | 24 kts | 52° |
| 2026-05-06 12:31 | 40.89070 | 14.30380 | 231 ft | 11 kts | 52° |
| 2026-05-06 12:31 | 40.89134 | 14.30449 | 227 ft | 13 kts | 12° |
| 2026-05-06 12:32 | 40.89212 | 14.30404 | 226 ft | 11 kts | 302° |
| 2026-05-06 12:32 | 40.89203 | 14.30346 | 230 ft | 0 kts | 238° |
| 2026-05-06 12:32 | 40.89171 | 14.30279 | 232 ft | 38 kts | 238° |
| 2026-05-06 12:33 | 40.88902 | 14.29710 | 250 ft | 105 kts | 238° |
| 2026-05-06 12:33 | 40.88416 | 14.28688 | 297 ft | 154 kts | 236° |
| 2026-05-06 12:33 | 40.87856 | 14.27487 | 896 ft | 155 kts | 230° |
| 2026-05-06 12:33 | 40.87024 | 14.26645 | 1606 ft | 156 kts | 195° |
| 2026-05-06 12:34 | 40.85869 | 14.26661 | 1961 ft | 180 kts | 172° |
| 2026-05-06 12:34 | 40.84601 | 14.26871 | 2572 ft | 185 kts | 174° |
| 2026-05-06 12:34 | 40.83318 | 14.27041 | 3250 ft | 185 kts | 176° |
| 2026-05-06 12:34 | 40.82027 | 14.27207 | 3862 ft | 188 kts | 176° |
| 2026-05-06 12:35 | 40.80711 | 14.27377 | 4456 ft | 192 kts | 177° |
| 2026-05-06 12:35 | 40.79373 | 14.27552 | 5062 ft | 194 kts | 177° |
| 2026-05-06 12:35 | 40.78021 | 14.27734 | 5642 ft | 196 kts | 178° |
| 2026-05-06 12:35 | 40.76663 | 14.27917 | 6174 ft | 202 kts | 178° |
| 2026-05-06 12:36 | 40.75245 | 14.28094 | 6669 ft | 207 kts | 178° |
| 2026-05-06 12:36 | 40.73820 | 14.28269 | 7285 ft | 205 kts | 178° |
| 2026-05-06 12:36 | 40.72393 | 14.28449 | 7866 ft | 206 kts | 178° |
| 2026-05-06 12:36 | 40.70957 | 14.28650 | 8428 ft | 209 kts | 174° |
| 2026-05-06 12:37 | 40.69467 | 14.29157 | 8604 ft | 234 kts | 168° |
| 2026-05-06 12:37 | 40.67812 | 14.29783 | 8868 ft | 260 kts | 167° |
| 2026-05-06 12:37 | 40.66020 | 14.30473 | 9266 ft | 282 kts | 166° |
| 2026-05-06 12:37 | 40.64103 | 14.31220 | 9991 ft | 291 kts | 166° |
| 2026-05-06 12:38 | 40.62124 | 14.32108 | 10457 ft | 314 kts | 159° |
| 2026-05-06 12:38 | 40.60163 | 14.33602 | 10913 ft | 338 kts | 141° |
| 2026-05-06 12:38 | 40.58751 | 14.36125 | 11588 ft | 352 kts | 114° |
| 2026-05-06 12:38 | 40.58241 | 14.39303 | 12278 ft | 361 kts | 93° |
| 2026-05-06 12:39 | 40.58392 | 14.42621 | 12978 ft | 367 kts | 82° |
| 2026-05-06 12:39 | 40.58888 | 14.45942 | 13670 ft | 373 kts | 77° |
| 2026-05-06 12:39 | 40.59499 | 14.49280 | 14288 ft | 378 kts | 77° |
| 2026-05-06 12:39 | 40.60083 | 14.52621 | 14895 ft | 382 kts | 78° |
| 2026-05-06 12:40 | 40.60599 | 14.56071 | 15503 ft | 386 kts | 81° |
| 2026-05-06 12:40 | 40.61032 | 14.59576 | 16124 ft | 390 kts | 82° |
| 2026-05-06 12:40 | 40.61403 | 14.63135 | 16753 ft | 395 kts | 84° |
| 2026-05-06 12:40 | 40.61742 | 14.66739 | 17376 ft | 399 kts | 84° |
| 2026-05-06 12:41 | 40.62077 | 14.70385 | 18001 ft | 403 kts | 84° |
| 2026-05-06 12:41 | 40.62419 | 14.74067 | 18558 ft | 407 kts | 84° |
| 2026-05-06 12:41 | 40.62773 | 14.77779 | 19078 ft | 411 kts | 84° |
| 2026-05-06 12:41 | 40.63136 | 14.81469 | 19590 ft | 414 kts | 83° |
| 2026-05-06 12:42 | 40.63515 | 14.85241 | 20115 ft | 417 kts | 83° |
| 2026-05-06 12:42 | 40.63899 | 14.89040 | 20628 ft | 421 kts | 83° |
| 2026-05-06 12:42 | 40.64285 | 14.92874 | 21132 ft | 424 kts | 83° |
| 2026-05-06 12:42 | 40.64673 | 14.96740 | 21622 ft | 428 kts | 84° |
| 2026-05-06 12:43 | 40.65061 | 15.00634 | 22102 ft | 431 kts | 84° |
| 2026-05-06 12:43 | 40.65451 | 15.04564 | 22591 ft | 435 kts | 84° |
| 2026-05-06 12:43 | 40.65844 | 15.08526 | 23079 ft | 438 kts | 84° |
| 2026-05-06 12:43 | 40.66232 | 15.12467 | 23477 ft | 441 kts | 84° |
| 2026-05-06 12:44 | 40.66626 | 15.16484 | 23875 ft | 444 kts | 84° |
| 2026-05-06 12:44 | 40.67020 | 15.20532 | 24258 ft | 447 kts | 84° |
| 2026-05-06 12:44 | 40.67417 | 15.24609 | 24645 ft | 450 kts | 83° |
| 2026-05-06 12:44 | 40.67814 | 15.28707 | 25052 ft | 452 kts | 84° |
| 2026-05-06 12:45 | 40.68210 | 15.32830 | 25448 ft | 455 kts | 84° |
| 2026-05-06 12:45 | 40.68594 | 15.36978 | 25816 ft | 457 kts | 86° |
| 2026-05-06 12:45 | 40.68192 | 15.45314 | 26561 ft | 457 kts | 105° |
| 2026-05-06 12:46 | 40.67344 | 15.49287 | 26912 ft | 458 kts | 110° |
| 2026-05-06 12:46 | 40.66422 | 15.53314 | 27317 ft | 461 kts | 110° |
| 2026-05-06 12:46 | 40.65500 | 15.57367 | 27691 ft | 463 kts | 109° |
| 2026-05-06 12:46 | 40.64575 | 15.61441 | 28022 ft | 466 kts | 109° |
| 2026-05-06 12:47 | 40.63643 | 15.65540 | 28395 ft | 468 kts | 109° |
| 2026-05-06 12:47 | 40.62707 | 15.69656 | 28753 ft | 471 kts | 109° |
| 2026-05-06 12:47 | 40.61763 | 15.73795 | 29101 ft | 473 kts | 109° |
| 2026-05-06 12:47 | 40.60814 | 15.77960 | 29440 ft | 476 kts | 109° |
| 2026-05-06 12:48 | 40.59874 | 15.82083 | 29772 ft | 479 kts | 109° |
| 2026-05-06 12:48 | 40.58912 | 15.86288 | 30088 ft | 481 kts | 109° |
| 2026-05-06 12:48 | 40.57944 | 15.90511 | 30359 ft | 483 kts | 109° |
| 2026-05-06 12:48 | 40.56972 | 15.94747 | 30645 ft | 485 kts | 109° |
| 2026-05-06 12:49 | 40.55992 | 15.98992 | 30957 ft | 485 kts | 109° |
| 2026-05-06 12:49 | 40.55006 | 16.03235 | 31264 ft | 485 kts | 110° |
| 2026-05-06 12:49 | 40.54013 | 16.07475 | 31621 ft | 484 kts | 110° |
| 2026-05-06 12:49 | 40.53024 | 16.11694 | 32022 ft | 483 kts | 110° |
| 2026-05-06 12:50 | 40.52052 | 16.15852 | 32365 ft | 482 kts | 110° |
| 2026-05-06 12:50 | 40.51069 | 16.20058 | 32751 ft | 481 kts | 109° |
| 2026-05-06 12:50 | 40.50090 | 16.24255 | 33162 ft | 480 kts | 109° |
| 2026-05-06 12:50 | 40.49116 | 16.28443 | 33552 ft | 479 kts | 109° |
| 2026-05-06 12:51 | 40.48145 | 16.32620 | 33940 ft | 478 kts | 109° |
| 2026-05-06 12:51 | 40.47172 | 16.36789 | 34276 ft | 477 kts | 109° |
| 2026-05-06 12:51 | 40.46193 | 16.40952 | 34601 ft | 477 kts | 109° |
| 2026-05-06 12:51 | 40.45211 | 16.45101 | 34935 ft | 476 kts | 110° |
| 2026-05-06 12:52 | 40.44241 | 16.49188 | 35274 ft | 474 kts | 110° |
| 2026-05-06 12:52 | 40.43264 | 16.53310 | 35622 ft | 473 kts | 110° |
| 2026-05-06 12:52 | 40.42289 | 16.57423 | 35932 ft | 471 kts | 110° |
| 2026-05-06 12:52 | 40.41316 | 16.61519 | 36236 ft | 470 kts | 110° |
| 2026-05-06 12:53 | 40.40343 | 16.65607 | 36521 ft | 468 kts | 110° |
| 2026-05-06 12:53 | 40.39372 | 16.69678 | 36802 ft | 467 kts | 110° |
| 2026-05-06 12:53 | 40.38400 | 16.73742 | 37045 ft | 467 kts | 110° |
| 2026-05-06 12:53 | 40.37440 | 16.77748 | 37165 ft | 466 kts | 110° |
| 2026-05-06 12:54 | 40.36472 | 16.81799 | 37165 ft | 465 kts | 110° |
| 2026-05-06 12:54 | 40.34534 | 16.89866 | 37035 ft | 463 kts | 110° |
| 2026-05-06 12:55 | 40.32594 | 16.97920 | 37043 ft | 463 kts | 110° |
| 2026-05-06 12:55 | 40.30643 | 17.05963 | 37043 ft | 463 kts | 110° |
| 2026-05-06 12:56 | 40.28709 | 17.13933 | 37050 ft | 462 kts | 110° |
| 2026-05-06 12:56 | 40.26761 | 17.21953 | 37048 ft | 462 kts | 110° |
| 2026-05-06 12:57 | 40.24805 | 17.29962 | 37039 ft | 462 kts | 110° |
| 2026-05-06 12:57 | 40.22841 | 17.37963 | 37056 ft | 462 kts | 110° |
| 2026-05-06 12:58 | 40.20893 | 17.45903 | 37061 ft | 461 kts | 110° |
| 2026-05-06 12:58 | 40.18917 | 17.53887 | 37064 ft | 461 kts | 110° |
| 2026-05-06 12:59 | 40.16935 | 17.61864 | 37068 ft | 461 kts | 110° |
| 2026-05-06 12:59 | 40.14954 | 17.69841 | 37068 ft | 461 kts | 110° |
| 2026-05-06 13:00 | 40.12983 | 17.77759 | 37065 ft | 461 kts | 110° |
| 2026-05-06 13:00 | 40.10989 | 17.85725 | 37078 ft | 461 kts | 110° |
| 2026-05-06 13:01 | 40.08987 | 17.93690 | 37088 ft | 461 kts | 111° |
| 2026-05-06 13:01 | 40.06986 | 18.01648 | 37081 ft | 462 kts | 110° |
| 2026-05-06 13:02 | 40.04991 | 18.09554 | 37089 ft | 462 kts | 111° |
| 2026-05-06 13:02 | 40.02977 | 18.17506 | 37093 ft | 462 kts | 111° |
| 2026-05-06 13:03 | 40.00952 | 18.25453 | 37093 ft | 461 kts | 111° |
| 2026-05-06 13:03 | 39.98924 | 18.33394 | 37093 ft | 462 kts | 111° |
| 2026-05-06 13:04 | 39.96893 | 18.41331 | 37092 ft | 462 kts | 111° |
| 2026-05-06 13:04 | 39.94864 | 18.49209 | 37097 ft | 461 kts | 110° |
| 2026-05-06 13:05 | 39.92821 | 18.57131 | 37102 ft | 461 kts | 111° |
| 2026-05-06 13:05 | 39.90778 | 18.65049 | 37108 ft | 461 kts | 110° |
| 2026-05-06 13:06 | 39.88729 | 18.72960 | 37112 ft | 461 kts | 111° |
| 2026-05-06 13:06 | 39.86681 | 18.80803 | 37107 ft | 461 kts | 110° |
| 2026-05-06 13:07 | 39.84618 | 18.88708 | 37106 ft | 461 kts | 110° |
| 2026-05-06 13:07 | 39.82549 | 18.96616 | 37105 ft | 461 kts | 112° |
| 2026-05-06 13:08 | 39.79512 | 19.03871 | 37109 ft | 455 kts | 129° |
| 2026-05-06 13:08 | 39.75796 | 19.10473 | 37109 ft | 456 kts | 129° |
| 2026-05-06 13:09 | 39.72074 | 19.17141 | 37094 ft | 456 kts | 128° |
| 2026-05-06 13:09 | 39.68347 | 19.23815 | 37098 ft | 456 kts | 128° |
| 2026-05-06 13:10 | 39.64613 | 19.30481 | 37102 ft | 457 kts | 129° |
| 2026-05-06 13:10 | 39.60893 | 19.37086 | 37109 ft | 457 kts | 129° |
| 2026-05-06 13:11 | 39.57138 | 19.43727 | 37111 ft | 457 kts | 129° |
| 2026-05-06 13:11 | 39.53385 | 19.50370 | 37111 ft | 457 kts | 129° |
| 2026-05-06 13:12 | 39.49633 | 19.57000 | 37113 ft | 456 kts | 129° |
| 2026-05-06 13:12 | 39.45895 | 19.63569 | 37116 ft | 456 kts | 129° |
| 2026-05-06 13:13 | 39.42133 | 19.70175 | 37108 ft | 456 kts | 129° |
| 2026-05-06 13:13 | 39.38372 | 19.76779 | 37111 ft | 456 kts | 129° |
| 2026-05-06 13:14 | 39.34608 | 19.83375 | 37111 ft | 456 kts | 129° |
| 2026-05-06 13:14 | 39.30833 | 19.89970 | 37109 ft | 457 kts | 129° |
| 2026-05-06 13:15 | 39.27074 | 19.96517 | 37107 ft | 457 kts | 129° |
| 2026-05-06 13:15 | 39.23288 | 20.03098 | 37115 ft | 457 kts | 129° |
| 2026-05-06 13:16 | 39.19500 | 20.09685 | 37116 ft | 457 kts | 129° |
| 2026-05-06 13:16 | 39.15704 | 20.16257 | 37113 ft | 457 kts | 129° |
| 2026-05-06 13:17 | 39.11924 | 20.22778 | 37112 ft | 458 kts | 129° |
| 2026-05-06 13:17 | 39.08141 | 20.29370 | 37108 ft | 458 kts | 128° |
| 2026-05-06 13:18 | 39.04378 | 20.35993 | 37115 ft | 459 kts | 128° |
| 2026-05-06 13:18 | 39.00600 | 20.42602 | 37119 ft | 459 kts | 129° |
| 2026-05-06 13:19 | 38.96825 | 20.49139 | 37116 ft | 459 kts | 129° |
| 2026-05-06 13:19 | 38.93020 | 20.55723 | 37117 ft | 459 kts | 129° |
| 2026-05-06 13:20 | 38.89216 | 20.62310 | 37117 ft | 459 kts | 129° |
| 2026-05-06 13:20 | 38.85403 | 20.68888 | 37108 ft | 459 kts | 129° |
| 2026-05-06 13:21 | 38.81576 | 20.75386 | 37112 ft | 460 kts | 129° |
| 2026-05-06 13:21 | 38.77709 | 20.81910 | 37111 ft | 460 kts | 129° |
| 2026-05-06 13:22 | 38.73839 | 20.88430 | 37111 ft | 460 kts | 129° |
| 2026-05-06 13:22 | 38.69968 | 20.94955 | 37118 ft | 460 kts | 129° |
| 2026-05-06 13:23 | 38.66121 | 21.01436 | 37111 ft | 461 kts | 129° |
| 2026-05-06 13:23 | 38.62235 | 21.07953 | 37112 ft | 461 kts | 129° |
| 2026-05-06 13:24 | 38.58344 | 21.14466 | 37120 ft | 461 kts | 129° |
| 2026-05-06 13:24 | 38.54452 | 21.20979 | 37107 ft | 461 kts | 129° |
| 2026-05-06 13:25 | 38.50552 | 21.27492 | 37107 ft | 462 kts | 129° |
| 2026-05-06 13:25 | 38.46670 | 21.33955 | 37104 ft | 462 kts | 129° |
| 2026-05-06 13:26 | 38.42756 | 21.40455 | 37110 ft | 462 kts | 129° |
| 2026-05-06 13:26 | 38.38838 | 21.46956 | 37114 ft | 462 kts | 129° |
| 2026-05-06 13:27 | 38.34917 | 21.53446 | 37114 ft | 462 kts | 129° |
| 2026-05-06 13:27 | 38.31018 | 21.59883 | 37114 ft | 462 kts | 129° |
| 2026-05-06 13:28 | 38.27093 | 21.66366 | 37115 ft | 462 kts | 129° |
| 2026-05-06 13:28 | 38.23163 | 21.72841 | 37119 ft | 462 kts | 129° |
| 2026-05-06 13:29 | 38.19232 | 21.79311 | 37126 ft | 462 kts | 129° |
| 2026-05-06 13:29 | 38.15314 | 21.85728 | 37113 ft | 463 kts | 129° |
| 2026-05-06 13:30 | 38.11360 | 21.92180 | 37106 ft | 463 kts | 129° |
| 2026-05-06 13:30 | 38.07406 | 21.98630 | 37110 ft | 463 kts | 129° |
| 2026-05-06 13:31 | 38.03451 | 22.05077 | 37108 ft | 463 kts | 129° |
| 2026-05-06 13:31 | 37.99492 | 22.11523 | 37104 ft | 463 kts | 129° |
| 2026-05-06 13:32 | 37.95554 | 22.17920 | 36950 ft | 464 kts | 129° |
| 2026-05-06 13:32 | 37.93568 | 22.21140 | 36681 ft | 463 kts | 129° |
| 2026-05-06 13:32 | 37.91582 | 22.24353 | 36428 ft | 464 kts | 129° |
| 2026-05-06 13:32 | 37.89591 | 22.27569 | 36163 ft | 464 kts | 129° |
| 2026-05-06 13:33 | 37.87598 | 22.30787 | 35913 ft | 465 kts | 129° |
| 2026-05-06 13:33 | 37.85606 | 22.34012 | 35655 ft | 465 kts | 129° |
| 2026-05-06 13:33 | 37.83612 | 22.37241 | 35398 ft | 465 kts | 129° |
| 2026-05-06 13:33 | 37.81620 | 22.40460 | 35151 ft | 464 kts | 130° |
| 2026-05-06 13:34 | 37.79656 | 22.43618 | 34905 ft | 462 kts | 130° |
| 2026-05-06 13:34 | 37.77667 | 22.46805 | 34661 ft | 461 kts | 130° |
| 2026-05-06 13:34 | 37.75679 | 22.49984 | 34418 ft | 461 kts | 130° |
| 2026-05-06 13:34 | 37.73700 | 22.53153 | 34181 ft | 458 kts | 130° |
| 2026-05-06 13:35 | 37.71746 | 22.56325 | 33923 ft | 458 kts | 127° |
| 2026-05-06 13:35 | 37.70074 | 22.59744 | 33644 ft | 458 kts | 118° |
| 2026-05-06 13:35 | 37.68751 | 22.63381 | 33207 ft | 454 kts | 114° |
| 2026-05-06 13:35 | 37.67473 | 22.67007 | 32667 ft | 451 kts | 114° |
| 2026-05-06 13:36 | 37.66211 | 22.70559 | 32138 ft | 448 kts | 115° |
| 2026-05-06 13:36 | 37.64931 | 22.74136 | 31615 ft | 446 kts | 115° |
| 2026-05-06 13:36 | 37.63654 | 22.77691 | 31097 ft | 444 kts | 114° |
| 2026-05-06 13:36 | 37.62382 | 22.81225 | 30589 ft | 441 kts | 114° |
| 2026-05-06 13:37 | 37.61115 | 22.84742 | 30068 ft | 440 kts | 114° |
| 2026-05-06 13:37 | 37.59853 | 22.88241 | 29530 ft | 436 kts | 114° |
| 2026-05-06 13:37 | 37.58604 | 22.91707 | 29047 ft | 432 kts | 114° |
| 2026-05-06 13:37 | 37.57369 | 22.95138 | 28564 ft | 428 kts | 114° |
| 2026-05-06 13:38 | 37.56146 | 22.98539 | 28105 ft | 423 kts | 114° |
| 2026-05-06 13:38 | 37.54954 | 23.01855 | 27664 ft | 419 kts | 113° |
| 2026-05-06 13:38 | 37.53753 | 23.05185 | 27206 ft | 415 kts | 113° |
| 2026-05-06 13:38 | 37.52561 | 23.08479 | 26763 ft | 411 kts | 113° |
| 2026-05-06 13:39 | 37.51381 | 23.11739 | 26336 ft | 407 kts | 112° |
| 2026-05-06 13:39 | 37.50524 | 23.15097 | 25886 ft | 400 kts | 96° |
| 2026-05-06 13:39 | 37.50477 | 23.18540 | 25433 ft | 390 kts | 77° |
| 2026-05-06 13:39 | 37.51222 | 23.21764 | 24995 ft | 379 kts | 59° |
| 2026-05-06 13:40 | 37.52627 | 23.24497 | 24533 ft | 368 kts | 43° |
| 2026-05-06 13:40 | 37.54523 | 23.26568 | 24093 ft | 357 kts | 27° |
| 2026-05-06 13:40 | 37.56642 | 23.28127 | 23495 ft | 350 kts | 25° |
| 2026-05-06 13:40 | 37.58748 | 23.29650 | 22627 ft | 347 kts | 25° |
| 2026-05-06 13:41 | 37.60804 | 23.31138 | 21839 ft | 344 kts | 25° |
| 2026-05-06 13:41 | 37.62873 | 23.32638 | 21145 ft | 344 kts | 25° |
| 2026-05-06 13:41 | 37.64938 | 23.34138 | 20743 ft | 341 kts | 25° |
| 2026-05-06 13:41 | 37.66986 | 23.35628 | 20324 ft | 339 kts | 25° |
| 2026-05-06 13:42 | 37.69024 | 23.37110 | 19900 ft | 337 kts | 25° |
| 2026-05-06 13:42 | 37.71052 | 23.38583 | 19490 ft | 335 kts | 25° |
| 2026-05-06 13:42 | 37.73061 | 23.40044 | 18941 ft | 331 kts | 25° |
| 2026-05-06 13:42 | 37.74985 | 23.41645 | 18234 ft | 333 kts | 36° |
| 2026-05-06 13:43 | 37.76581 | 23.43718 | 17505 ft | 336 kts | 49° |
| 2026-05-06 13:43 | 37.77786 | 23.46260 | 16990 ft | 340 kts | 63° |
| 2026-05-06 13:43 | 37.78679 | 23.49026 | 16626 ft | 338 kts | 64° |
| 2026-05-06 13:43 | 37.79565 | 23.51768 | 16269 ft | 336 kts | 64° |
| 2026-05-06 13:44 | 37.80455 | 23.54491 | 15922 ft | 334 kts | 64° |
| 2026-05-06 13:44 | 37.81342 | 23.57193 | 15584 ft | 331 kts | 64° |
| 2026-05-06 13:44 | 37.82219 | 23.59874 | 15262 ft | 329 kts | 64° |
| 2026-05-06 13:44 | 37.83087 | 23.62538 | 14937 ft | 326 kts | 64° |
| 2026-05-06 13:45 | 37.83934 | 23.65152 | 14617 ft | 324 kts | 64° |
| 2026-05-06 13:45 | 37.85628 | 23.70400 | 13983 ft | 320 kts | 64° |
| 2026-05-06 13:45 | 37.86465 | 23.72999 | 13639 ft | 318 kts | 65° |
| 2026-05-06 13:46 | 37.87296 | 23.75583 | 13284 ft | 316 kts | 65° |
| 2026-05-06 13:46 | 37.88122 | 23.78153 | 12938 ft | 314 kts | 65° |
| 2026-05-06 13:46 | 37.88935 | 23.80711 | 12579 ft | 313 kts | 67° |
| 2026-05-06 13:46 | 37.89652 | 23.83305 | 12209 ft | 311 kts | 70° |
| 2026-05-06 13:47 | 37.90295 | 23.85916 | 11857 ft | 310 kts | 71° |
| 2026-05-06 13:47 | 37.90906 | 23.88525 | 11511 ft | 308 kts | 71° |
| 2026-05-06 13:47 | 37.91502 | 23.91082 | 11163 ft | 306 kts | 71° |
| 2026-05-06 13:47 | 37.92108 | 23.93660 | 10811 ft | 304 kts | 71° |
| 2026-05-06 13:48 | 37.92713 | 23.96197 | 10582 ft | 298 kts | 71° |
| 2026-05-06 13:48 | 37.93312 | 23.98690 | 10290 ft | 295 kts | 72° |
| 2026-05-06 13:48 | 37.93909 | 24.01165 | 9947 ft | 293 kts | 71° |
| 2026-05-06 13:48 | 37.94508 | 24.03634 | 9541 ft | 293 kts | 71° |
| 2026-05-06 13:49 | 37.95104 | 24.06094 | 9161 ft | 291 kts | 71° |
| 2026-05-06 13:49 | 37.95695 | 24.08540 | 8800 ft | 289 kts | 71° |
| 2026-05-06 13:49 | 37.96273 | 24.10931 | 8434 ft | 287 kts | 71° |
| 2026-05-06 13:49 | 37.96856 | 24.13342 | 8053 ft | 285 kts | 71° |
| 2026-05-06 13:50 | 37.97497 | 24.15709 | 7658 ft | 282 kts | 61° |
| 2026-05-06 13:50 | 37.98714 | 24.17586 | 7156 ft | 273 kts | 34° |
| 2026-05-06 13:50 | 38.00420 | 24.18536 | 6498 ft | 268 kts | 10° |
| 2026-05-06 13:50 | 38.02263 | 24.18908 | 5769 ft | 268 kts | 6° |
| 2026-05-06 13:51 | 38.04109 | 24.19203 | 5092 ft | 266 kts | 4° |
| 2026-05-06 13:51 | 38.05916 | 24.18975 | 4425 ft | 260 kts | 338° |
| 2026-05-06 13:51 | 38.07402 | 24.17775 | 3736 ft | 257 kts | 318° |
| 2026-05-06 13:51 | 38.08707 | 24.16215 | 3159 ft | 257 kts | 309° |
| 2026-05-06 13:52 | 38.09570 | 24.14228 | 3011 ft | 260 kts | 287° |
| 2026-05-06 13:52 | 38.09839 | 24.12054 | 2984 ft | 236 kts | 268° |
| 2026-05-06 13:52 | 38.09595 | 24.10117 | 2989 ft | 212 kts | 251° |
| 2026-05-06 13:52 | 38.08991 | 24.08480 | 2992 ft | 200 kts | 236° |
| 2026-05-06 13:53 | 38.08109 | 24.07150 | 2997 ft | 196 kts | 221° |
| 2026-05-06 13:53 | 38.07047 | 24.06097 | 2996 ft | 191 kts | 216° |
| 2026-05-06 13:53 | 38.05990 | 24.05086 | 2957 ft | 186 kts | 216° |
| 2026-05-06 13:53 | 38.04996 | 24.04135 | 2773 ft | 178 kts | 216° |
| 2026-05-06 13:54 | 38.04019 | 24.03201 | 2550 ft | 172 kts | 215° |
| 2026-05-06 13:54 | 38.03089 | 24.02312 | 2327 ft | 163 kts | 215° |
| 2026-05-06 13:54 | 38.02216 | 24.01478 | 2127 ft | 153 kts | 215° |
| 2026-05-06 13:54 | 38.01387 | 24.00687 | 1937 ft | 146 kts | 213° |
| 2026-05-06 13:55 | 38.00580 | 23.99918 | 1755 ft | 145 kts | 213° |
| 2026-05-06 13:55 | 37.99779 | 23.99154 | 1551 ft | 144 kts | 214° |
| 2026-05-06 13:55 | 37.98976 | 23.98388 | 1367 ft | 144 kts | 213° |
| 2026-05-06 13:55 | 37.98194 | 23.97642 | 1182 ft | 143 kts | 214° |
| 2026-05-06 13:56 | 37.97401 | 23.96887 | 979 ft | 144 kts | 213° |
| 2026-05-06 13:56 | 37.96597 | 23.96121 | 818 ft | 142 kts | 217° |
| 2026-05-06 13:56 | 37.95816 | 23.95392 | 631 ft | 139 kts | 216° |
| 2026-05-06 13:56 | 37.95058 | 23.94646 | 453 ft | 138 kts | 215° |
| 2026-05-06 13:57 | 37.94295 | 23.93935 | 320 ft | 129 kts | 217° |
| 2026-05-06 13:57 | 37.93636 | 23.93303 | 293 ft | 102 kts | 216° |
| 2026-05-06 13:57 | 37.93204 | 23.92895 | 292 ft | 53 kts | 217° |
| 2026-05-06 13:57 | 37.92986 | 23.92688 | 295 ft | 30 kts | 217° |
| 2026-05-06 13:58 | 37.92826 | 23.92564 | 299 ft | 24 kts | 201° |
| 2026-05-06 13:58 | 37.92682 | 23.92520 | 301 ft | 15 kts | 187° |
| 2026-05-06 13:58 | 37.92603 | 23.92547 | 300 ft | 10 kts | 137° |
| 2026-05-06 13:58 | 37.92600 | 23.92600 | 301 ft | 6 kts | 51° |
| 2026-05-06 13:59 | 37.92637 | 23.92636 | 301 ft | 8 kts | 34° |
| 2026-05-06 13:59 | 37.92693 | 23.92687 | 302 ft | 11 kts | 37° |
| 2026-05-06 13:59 | 37.92762 | 23.92754 | 300 ft | 13 kts | 37° |
| 2026-05-06 13:59 | 37.92833 | 23.92819 | 300 ft | 12 kts | 35° |
| 2026-05-06 14:00 | 37.92898 | 23.92881 | 302 ft | 11 kts | 38° |
| 2026-05-06 14:00 | 37.92959 | 23.92940 | 300 ft | 11 kts | 38° |
| 2026-05-06 14:00 | 37.93017 | 23.92997 | 301 ft | 10 kts | 37° |
| 2026-05-06 14:00 | 37.93071 | 23.93049 | 301 ft | 9 kts | 37° |
| 2026-05-06 14:01 | 37.93121 | 23.93094 | 299 ft | 8 kts | 35° |
| 2026-05-06 14:01 | 37.93184 | 23.93153 | 302 ft | 13 kts | 37° |
| 2026-05-06 14:01 | 37.93238 | 23.93234 | 299 ft | 11 kts | 89° |
| 2026-05-06 14:01 | 37.93227 | 23.93318 | 301 ft | 9 kts | 79° |
| 2026-05-06 14:02 | 37.93261 | 23.93371 | 302 ft | 7 kts | 36° |
| 2026-05-06 14:02 | 37.93317 | 23.93423 | 300 ft | 15 kts | 36° |
| 2026-05-06 14:02 | 37.93376 | 23.93516 | 300 ft | 13 kts | 90° |
| 2026-05-06 14:02 | 37.93332 | 23.93606 | 301 ft | 12 kts | 127° |
| 2026-05-06 14:03 | 37.93284 | 23.93688 | 301 ft | 13 kts | 127° |
| 2026-05-06 14:03 | 37.93221 | 23.93791 | 301 ft | 17 kts | 127° |
| 2026-05-06 14:03 | 37.93144 | 23.93919 | 303 ft | 19 kts | 127° |
| 2026-05-06 14:03 | 37.93073 | 23.94038 | 301 ft | 12 kts | 127° |
| 2026-05-06 14:04 | 37.93027 | 23.94116 | 302 ft | 10 kts | 126° |
| 2026-05-06 14:04 | 37.92989 | 23.94181 | 301 ft | 9 kts | 126° |
| 2026-05-06 14:04 | 37.93003 | 23.94237 | 302 ft | 7 kts | 42° |
| 2026-05-06 14:04 | 37.93038 | 23.94270 | 303 ft | 6 kts | 37° |
| 2026-05-06 14:05 | 37.93048 | 23.94280 | 302 ft | 0 kts | 37° |